EGTU weather

Dunkeswell Airport
Dunkeswell, England, United Kingdom

Public forecast

Using degrees Celsius for public forecast. Weather courtesy of forecast.io.

Closest aviation weather report (METAR) to Dunkeswell Airport

Closest report is Exeter International Airport, 10.2 nm (18.8 km) SW. Retrieved 2019/10/21 18:20 UTC (22 minutes ago):

EGTE 211820Z VRB02KT 9999 FEW020 10/08 Q1023

Closest aviation forecast (TAF) to Dunkeswell Airport

Forecast is more than 12 hours old.

Closest forecast is Exeter International Airport, 10.2 nm (18.8 km) SW. Retrieved 2012/04/19 12:15 UTC (8 years ago):

TAF TAF EGTE 191401Z 1912/1924 31016KT 9999 SCT030 SCT035 PROB40 TEMPO 1915/1918 7000 SHRA BKN014